Huvudsida
METAR-TAF:

METAR-TAF

Flygplatser :

Kefalinias internationella flygplats

Kefalinia, Grekland

latitud: 38-07N, longitud: 020-30E, höjd: 19 m

Aktuellt väderrapport

Denna rapport gjordes för 57 minuter sedan, klockan 13:50 UTC
Vind 5 kt från väst/sydväst
Temperatur 32°C
Fuktighet 52%
Tryck 1014 hPa
Sikt 10 km eller mer
Få moln på en höjd av 2000 ft

METAR: LGKF 261350Z 25005KT 9999 FEW020 32/21 Q1014

Tid: 17:47 (14:47 UTC)

Väderprognos

Denna rapport gjordes för 47 minuter sedan, klockan 14:00 UTC
Prognos gäller från 26 kl. 15 UTC till 26 kl. 24 UTC
Vind 8 kt från nord
Sikt 10 km eller mer
Få moln på en höjd av 2500 ft
Blir
från 26 kl. 20 UTC till 26 kl. 22 UTC
Vind 12 kt från ost/nordost

TAF: LGKF 261400Z 2615/2624 36008KT 9999 FEW025 BECMG 2620/2622 06012KT

Aktuella väderrapporter och prognoser från 4000 flygplatser (METAR- och TAF-rapporter).

De tillgängliga stationerna syns som gula och röda prickar på kartan.

För musen över prickarna för att se namnen på stationerna.

Klicka sedan för att få väderrapporter och prognoser.

För att ändra kartan: Klicka på de gröna knapparna med ett svart kors på för att zooma in; den gröna knappen med ett streck på för att zooma ut; eller på de gröna pilarna för angränsande kartor.


METAR-TAF: